createdAt,value
2023-07-04T00:01:38.764Z,100.00
2023-07-04T00:04:09.747Z,100.00
2023-07-04T00:06:39.597Z,100.00
2023-07-04T00:09:08.890Z,100.00
2023-07-04T00:11:38.263Z,100.00
2023-07-04T00:14:09.239Z,100.00
2023-07-04T00:16:38.111Z,100.00
2023-07-04T00:19:09.186Z,100.00
2023-07-04T00:21:40.465Z,100.00
2023-07-04T00:24:08.664Z,100.00
2023-07-04T00:26:37.503Z,100.00
2023-07-04T00:29:06.040Z,100.00
2023-07-04T00:31:34.259Z,100.00
2023-07-04T00:34:06.097Z,100.00
2023-07-04T00:36:36.299Z,100.00
2023-07-04T00:39:05.494Z,100.00
2023-07-04T00:41:34.635Z,100.00
2023-07-04T00:44:10.381Z,100.00
2023-07-04T00:46:42.046Z,100.00
2023-07-04T00:49:19.356Z,100.00
2023-07-04T00:52:05.517Z,100.00
2023-07-04T00:54:38.498Z,100.00
2023-07-04T00:57:08.298Z,100.00
2023-07-04T00:59:39.714Z,100.00
2023-07-04T01:02:09.481Z,100.00
2023-07-04T01:04:41.513Z,100.00
2023-07-04T01:07:16.414Z,100.00
2023-07-04T01:09:49.033Z,100.00
2023-07-04T01:12:21.259Z,100.00
2023-07-04T01:14:50.747Z,100.00
2023-07-04T01:17:19.746Z,100.00
2023-07-04T01:19:48.569Z,100.00
2023-07-04T01:22:22.770Z,100.00
2023-07-04T01:24:56.591Z,100.00
2023-07-04T01:27:28.070Z,100.00
2023-07-04T01:30:11.379Z,100.00
2023-07-04T01:32:42.159Z,100.00
2023-07-04T01:35:13.897Z,100.00
2023-07-04T01:37:42.425Z,100.00
2023-07-04T01:40:11.612Z,100.00
2023-07-04T01:42:41.875Z,100.00
2023-07-04T01:45:11.239Z,100.00
2023-07-04T01:47:40.629Z,100.00
2023-07-04T01:50:10.066Z,100.00
2023-07-04T01:52:40.190Z,100.00
2023-07-04T01:55:09.923Z,100.00
2023-07-04T01:57:39.233Z,100.00
2023-07-04T02:00:14.680Z,100.00
2023-07-04T02:02:58.418Z,100.00
2023-07-04T02:05:27.338Z,100.00
2023-07-04T02:07:55.683Z,100.00
2023-07-04T02:10:23.637Z,100.00
2023-07-04T02:12:51.857Z,100.00
2023-07-04T02:15:21.504Z,100.00
2023-07-04T02:17:49.965Z,100.00
2023-07-04T02:20:19.053Z,100.00
2023-07-04T02:22:47.156Z,100.00
2023-07-04T02:25:15.666Z,100.00
2023-07-04T02:27:45.546Z,100.00
2023-07-04T02:30:14.195Z,100.00
2023-07-04T02:32:43.906Z,100.00
2023-07-04T02:35:12.294Z,100.00
2023-07-04T02:37:43.431Z,100.00
2023-07-04T02:40:12.189Z,100.00
2023-07-04T02:42:40.649Z,100.00
2023-07-04T02:45:10.786Z,100.00
2023-07-04T02:47:40.682Z,100.00
2023-07-04T02:50:14.902Z,100.00
2023-07-04T02:52:43.970Z,100.00
2023-07-04T02:55:14.006Z,100.00
2023-07-04T02:57:42.335Z,100.00
2023-07-04T03:00:11.082Z,100.00
2023-07-04T03:02:40.245Z,100.00
2023-07-04T03:05:09.588Z,100.00
2023-07-04T03:07:41.194Z,100.00
2023-07-04T03:10:12.039Z,100.00
2023-07-04T03:12:40.643Z,100.00
2023-07-04T03:15:09.449Z,100.00
2023-07-04T03:17:42.998Z,100.00
2023-07-04T03:20:16.148Z,100.00
2023-07-04T03:22:47.902Z,100.00
2023-07-04T03:25:17.375Z,100.00
2023-07-04T03:27:49.560Z,100.00
2023-07-04T03:30:22.074Z,100.00
2023-07-04T03:32:54.348Z,100.00
2023-07-04T03:35:24.133Z,100.00
2023-07-04T03:37:53.558Z,100.00
2023-07-04T03:40:22.096Z,100.00
2023-07-04T03:42:50.456Z,100.00
2023-07-04T03:45:19.859Z,100.00
2023-07-04T03:47:48.258Z,100.00
2023-07-04T03:50:16.554Z,100.00
2023-07-04T03:52:45.524Z,100.00
2023-07-04T03:55:16.274Z,100.00
2023-07-04T03:57:44.350Z,100.00
2023-07-04T04:00:14.161Z,100.00
2023-07-04T04:02:58.490Z,100.00
2023-07-04T04:05:28.357Z,100.00
2023-07-04T04:07:57.282Z,100.00
2023-07-04T04:10:26.815Z,100.00
2023-07-04T04:12:54.926Z,100.00
2023-07-04T04:15:23.398Z,100.00
2023-07-04T04:17:52.624Z,100.00
2023-07-04T04:20:20.634Z,100.00
2023-07-04T04:22:48.944Z,100.00
2023-07-04T04:25:17.893Z,100.00
2023-07-04T04:27:49.225Z,100.00
2023-07-04T04:30:18.078Z,100.00
2023-07-04T04:32:48.009Z,100.00
2023-07-04T04:35:16.604Z,100.00
2023-07-04T04:37:44.886Z,100.00
2023-07-04T04:40:13.398Z,100.00
2023-07-04T04:42:45.083Z,100.00
2023-07-04T04:45:15.768Z,100.00
2023-07-04T04:47:54.367Z,100.00
2023-07-04T04:50:23.494Z,100.00
2023-07-04T04:52:51.967Z,100.00
2023-07-04T04:55:20.227Z,100.00
2023-07-04T04:57:49.454Z,100.00
2023-07-04T05:00:19.848Z,100.00
2023-07-04T05:02:48.101Z,100.00
2023-07-04T05:05:16.547Z,100.00
2023-07-04T05:07:44.788Z,100.00
2023-07-04T05:10:13.156Z,100.00
2023-07-04T05:12:41.598Z,100.00
2023-07-04T05:15:10.319Z,100.00
2023-07-04T05:17:40.558Z,100.00
2023-07-04T05:20:10.304Z,100.00
2023-07-04T05:22:38.910Z,100.00
2023-07-04T05:25:07.814Z,100.00
2023-07-04T05:27:35.672Z,100.00
2023-07-04T05:30:04.692Z,100.00
2023-07-04T05:32:32.762Z,100.00
2023-07-04T05:35:02.604Z,100.00
2023-07-04T05:37:32.913Z,100.00
2023-07-04T05:40:01.318Z,100.00
2023-07-04T05:42:30.594Z,100.00
2023-07-04T05:44:59.228Z,100.00
2023-07-04T05:47:27.607Z,100.00
2023-07-04T05:49:56.352Z,100.00
2023-07-04T05:52:26.381Z,100.00
2023-07-04T05:54:55.014Z,100.00
2023-07-04T05:57:23.584Z,100.00
2023-07-04T05:59:52.947Z,100.00
2023-07-04T06:02:23.741Z,100.00
2023-07-04T06:04:53.665Z,100.00
2023-07-04T06:07:22.214Z,100.00
2023-07-04T06:09:52.126Z,99.33
2023-07-04T06:12:21.120Z,100.00
2023-07-04T06:14:49.678Z,100.00
2023-07-04T06:17:18.109Z,98.06
2023-07-04T06:19:50.275Z,92.15
2023-07-04T06:22:18.557Z,87.50
2023-07-04T06:24:50.129Z,84.87
2023-07-04T06:27:19.694Z,85.33
2023-07-04T06:29:49.057Z,79.61
2023-07-04T06:32:17.314Z,76.39
2023-07-04T06:34:45.712Z,74.50
2023-07-04T06:37:13.707Z,72.96
2023-07-04T06:39:41.737Z,75.72
2023-07-04T06:42:09.965Z,75.35
2023-07-04T06:44:47.104Z,87.51
2023-07-04T06:47:15.685Z,80.06
2023-07-04T06:49:44.100Z,87.01
2023-07-04T06:52:12.409Z,80.35
2023-07-04T06:54:40.514Z,76.66
2023-07-04T06:57:08.640Z,73.91
2023-07-04T06:59:37.524Z,68.75
2023-07-04T07:02:10.240Z,66.89
2023-07-04T07:04:41.117Z,63.83
2023-07-04T07:07:10.857Z,54.91
2023-07-04T07:09:41.411Z,60.84
2023-07-04T07:12:11.234Z,60.92
2023-07-04T07:14:40.118Z,54.53
2023-07-04T07:17:10.618Z,61.13
2023-07-04T07:19:40.611Z,60.13
2023-07-04T07:22:10.336Z,57.49
2023-07-04T07:24:38.884Z,56.03
2023-07-04T07:27:08.916Z,58.80
2023-07-04T07:29:37.301Z,63.94
2023-07-04T07:32:08.119Z,56.53
2023-07-04T07:34:39.109Z,51.18
2023-07-04T07:37:08.875Z,47.66
2023-07-04T07:39:39.266Z,47.53
2023-07-04T07:42:07.540Z,46.21
2023-07-04T07:44:36.324Z,46.98
2023-07-04T07:47:06.106Z,46.22
2023-07-04T07:49:34.809Z,51.15
2023-07-04T07:52:04.504Z,48.79
2023-07-04T07:54:33.068Z,46.97
2023-07-04T07:57:03.797Z,45.41
2023-07-04T07:59:32.154Z,44.52
2023-07-04T08:02:00.974Z,44.08
2023-07-04T08:04:29.319Z,45.70
2023-07-04T08:06:58.738Z,49.32
2023-07-04T08:09:29.979Z,58.24
2023-07-04T08:11:58.886Z,52.40
2023-07-04T08:14:28.603Z,44.94
2023-07-04T08:16:57.505Z,42.44
2023-07-04T08:19:26.654Z,42.99
2023-07-04T08:21:55.913Z,40.45
2023-07-04T08:24:27.295Z,41.23
2023-07-04T08:27:02.891Z,39.58
2023-07-04T08:29:33.820Z,45.32
2023-07-04T08:32:02.342Z,45.75
2023-07-04T08:34:30.292Z,42.22
2023-07-04T08:36:58.795Z,39.27
2023-07-04T08:39:27.734Z,40.81
2023-07-04T08:42:00.672Z,36.84
2023-07-04T08:44:33.439Z,35.54
2023-07-04T08:47:02.490Z,35.28
2023-07-04T08:49:35.484Z,32.36
2023-07-04T08:52:08.120Z,33.54
2023-07-04T08:54:38.169Z,34.01
2023-07-04T08:57:13.981Z,31.53
2023-07-04T08:59:44.404Z,41.80
2023-07-04T09:02:34.627Z,41.07
2023-07-04T09:05:09.450Z,39.46
2023-07-04T09:07:42.512Z,39.14
2023-07-04T09:10:20.140Z,36.04
2023-07-04T09:12:50.295Z,35.29
2023-07-04T09:15:22.873Z,33.63
2023-07-04T09:18:08.425Z,34.00
2023-07-04T09:20:48.825Z,35.84
2023-07-04T09:23:18.599Z,36.34
2023-07-04T09:25:48.254Z,37.12
2023-07-04T09:28:18.358Z,44.72
2023-07-04T09:30:51.034Z,44.39
2023-07-04T09:33:22.604Z,37.94
2023-07-04T09:35:52.261Z,38.77
2023-07-04T09:38:21.317Z,36.27
2023-07-04T09:40:52.801Z,38.82
2023-07-04T09:43:31.369Z,43.28
2023-07-04T09:46:13.838Z,46.73
2023-07-04T09:48:43.480Z,43.94
2023-07-04T09:51:20.805Z,42.50
2023-07-04T09:53:49.234Z,38.36
2023-07-04T09:56:27.291Z,34.34
2023-07-04T09:59:14.270Z,31.47
2023-07-04T10:01:43.929Z,34.67
2023-07-04T10:04:13.850Z,37.03
2023-07-04T10:06:44.723Z,39.29
2023-07-04T10:09:19.679Z,38.44
2023-07-04T10:11:49.468Z,35.39
2023-07-04T10:14:19.672Z,33.91
2023-07-04T10:16:50.114Z,30.71
2023-07-04T10:19:20.115Z,31.17
2023-07-04T10:21:52.333Z,29.34
2023-07-04T10:24:23.962Z,28.75
2023-07-04T10:26:56.576Z,28.93
2023-07-04T10:29:35.584Z,29.95
2023-07-04T10:32:06.904Z,29.35
2023-07-04T10:34:38.707Z,28.62
2023-07-04T10:37:08.225Z,28.87
2023-07-04T10:39:39.600Z,29.51
2023-07-04T10:42:13.510Z,28.20
2023-07-04T10:44:44.863Z,28.31
2023-07-04T10:47:14.752Z,28.18
2023-07-04T10:49:46.098Z,26.42
2023-07-04T10:52:18.035Z,26.57
2023-07-04T10:54:47.060Z,29.93
2023-07-04T10:57:26.694Z,28.56
2023-07-04T11:00:05.301Z,28.23
2023-07-04T11:02:38.371Z,30.39
2023-07-04T11:05:12.224Z,28.55
2023-07-04T11:07:42.467Z,27.61
2023-07-04T11:10:13.774Z,27.17
2023-07-04T11:12:44.317Z,28.77
2023-07-04T11:15:25.107Z,29.13
2023-07-04T11:17:55.676Z,28.33
2023-07-04T11:20:30.354Z,29.13
2023-07-04T11:23:04.785Z,27.47
2023-07-04T11:25:36.655Z,25.35
2023-07-04T11:28:15.902Z,24.88
2023-07-04T11:30:49.083Z,20.87
2023-07-04T11:33:35.886Z,19.47
2023-07-04T11:36:04.337Z,17.87
2023-07-04T11:38:33.769Z,16.92
2023-07-04T11:41:03.776Z,16.30
2023-07-04T11:43:34.949Z,18.13
2023-07-04T11:46:05.703Z,19.44
2023-07-04T11:48:36.193Z,20.17
2023-07-04T11:51:06.867Z,23.21
2023-07-04T11:53:40.442Z,26.47
2023-07-04T11:56:17.125Z,28.16
2023-07-04T11:58:46.710Z,26.86
2023-07-04T12:01:18.199Z,25.50
2023-07-04T12:03:53.692Z,21.06
2023-07-04T12:06:50.966Z,18.92
2023-07-04T12:09:26.321Z,22.48
2023-07-04T12:11:57.146Z,22.27
2023-07-04T12:14:28.514Z,21.74
2023-07-04T12:17:02.086Z,20.04
2023-07-04T12:19:30.876Z,17.45
2023-07-04T12:21:59.549Z,19.42
2023-07-04T12:24:29.173Z,18.11
2023-07-04T12:26:58.583Z,16.91
2023-07-04T12:30:02.260Z,19.85
2023-07-04T12:32:19.892Z,18.98
2023-07-04T12:37:28.773Z,17.56
2023-07-04T12:40:02.493Z,17.20
2023-07-04T12:42:32.327Z,17.39
2023-07-04T12:45:08.714Z,16.69
2023-07-04T12:47:39.732Z,17.72
2023-07-04T12:50:09.145Z,21.48
2023-07-04T12:52:39.774Z,19.55
2023-07-04T12:55:14.967Z,16.27
2023-07-04T12:57:44.014Z,16.79
2023-07-04T13:00:14.095Z,18.34
2023-07-04T13:02:48.960Z,16.34
2023-07-04T13:05:18.031Z,16.91
2023-07-04T13:07:47.913Z,18.88
2023-07-04T13:10:21.738Z,20.29
2023-07-04T13:12:50.966Z,22.23
2023-07-04T13:15:26.127Z,21.92
2023-07-04T13:18:00.896Z,20.17
2023-07-04T13:20:29.922Z,17.64
2023-07-04T13:24:57.998Z,18.55
2023-07-04T13:25:49.599Z,22.91
2023-07-04T13:33:45.047Z,17.57
2023-07-04T13:36:14.587Z,17.68
2023-07-04T13:41:16.077Z,17.58
2023-07-04T13:46:16.224Z,17.44
2023-07-04T13:48:46.204Z,21.53
2023-07-04T13:51:14.920Z,19.50
2023-07-04T13:53:44.952Z,19.85
2023-07-04T13:56:13.036Z,17.30
2023-07-04T13:58:41.683Z,16.46
2023-07-04T14:06:15.795Z,15.44
2023-07-04T14:08:46.550Z,14.42
2023-07-04T14:11:15.968Z,16.92
2023-07-04T14:13:47.141Z,16.56
2023-07-04T14:21:25.501Z,18.94
2023-07-04T14:23:54.369Z,17.10
2023-07-04T14:26:24.626Z,16.33
2023-07-04T14:28:53.689Z,16.23
2023-07-04T14:31:22.462Z,16.99
2023-07-04T14:33:51.924Z,20.00
2023-07-04T14:36:21.540Z,22.46
2023-07-04T14:38:50.216Z,19.47
2023-07-04T14:43:51.274Z,18.78
2023-07-04T14:46:19.543Z,19.48
2023-07-04T14:48:49.834Z,19.81
2023-07-04T14:51:18.820Z,21.56
2023-07-04T14:53:48.611Z,22.13
2023-07-04T14:56:17.885Z,22.35
2023-07-04T14:58:47.020Z,21.74
2023-07-04T15:01:16.454Z,20.29
2023-07-04T15:03:44.842Z,19.08
2023-07-04T15:06:12.912Z,19.33
2023-07-04T15:08:41.861Z,20.00
2023-07-04T15:11:11.276Z,20.17
2023-07-04T15:13:39.688Z,22.73
2023-07-04T15:16:10.663Z,24.24
2023-07-04T15:18:39.838Z,22.72
2023-07-04T15:21:08.826Z,21.47
2023-07-04T15:23:36.917Z,21.09
2023-07-04T15:26:20.024Z,21.02
2023-07-04T15:28:57.495Z,20.27
2023-07-04T15:31:27.047Z,21.86
2023-07-04T15:33:58.783Z,21.00
2023-07-04T15:36:27.457Z,22.25
2023-07-04T15:38:55.833Z,21.87
2023-07-04T15:41:24.709Z,19.62
2023-07-04T15:43:52.352Z,21.36
2023-07-04T15:46:23.875Z,21.12
2023-07-04T15:48:53.236Z,23.37
2023-07-04T15:51:23.206Z,21.10
2023-07-04T15:53:51.360Z,20.65
2023-07-04T15:56:24.455Z,19.06
2023-07-04T15:58:52.757Z,20.00
2023-07-04T16:01:22.616Z,19.68
2023-07-04T16:03:53.877Z,19.16
2023-07-04T16:06:23.682Z,18.71
2023-07-04T16:08:52.911Z,18.80
2023-07-04T16:11:21.013Z,18.24
2023-07-04T16:13:51.652Z,18.37
2023-07-04T16:16:20.075Z,18.51
2023-07-04T16:18:49.941Z,20.16
2023-07-04T16:21:18.109Z,24.83
2023-07-04T16:23:47.322Z,26.15
2023-07-04T16:26:18.327Z,24.97
2023-07-04T16:28:46.609Z,24.75
2023-07-04T16:31:14.739Z,22.63
2023-07-04T16:33:42.784Z,21.69
2023-07-04T16:36:12.453Z,22.19
2023-07-04T16:38:40.336Z,21.89
2023-07-04T16:41:13.007Z,23.14
2023-07-04T16:43:41.549Z,23.65
2023-07-04T16:46:10.369Z,24.89
2023-07-04T16:48:38.314Z,25.00
2023-07-04T16:51:06.697Z,23.04
2023-07-04T16:53:36.164Z,23.08
2023-07-04T16:56:04.475Z,22.13
2023-07-04T16:58:33.292Z,22.48
2023-07-04T17:01:02.053Z,24.55
2023-07-04T17:03:30.711Z,24.20
2023-07-04T17:06:03.064Z,23.88
2023-07-04T17:08:34.718Z,24.14
2023-07-04T17:11:06.315Z,23.88
2023-07-04T17:13:39.141Z,23.84
2023-07-04T17:16:08.207Z,24.20
2023-07-04T17:18:42.947Z,23.26
2023-07-04T17:21:11.536Z,23.26
2023-07-04T17:23:46.855Z,23.01
2023-07-04T17:26:15.970Z,22.72
2023-07-04T17:28:44.838Z,23.32
2023-07-04T17:31:13.811Z,22.66
2023-07-04T17:33:43.259Z,23.53
2023-07-04T17:36:13.198Z,23.59
2023-07-04T17:38:41.736Z,25.13
2023-07-04T17:41:11.478Z,24.68
2023-07-04T17:43:42.772Z,24.72
2023-07-04T17:46:12.472Z,25.40
2023-07-04T17:48:40.878Z,25.54
2023-07-04T17:51:10.204Z,24.71
2023-07-04T17:53:38.482Z,24.96
2023-07-04T17:56:09.878Z,24.48
2023-07-04T17:58:38.447Z,24.57
2023-07-04T18:01:13.172Z,25.19
2023-07-04T18:03:46.056Z,25.73
2023-07-04T18:06:15.458Z,26.56
2023-07-04T18:08:44.149Z,26.94
2023-07-04T18:11:16.113Z,29.06
2023-07-04T18:13:44.982Z,29.71
2023-07-04T18:16:14.173Z,30.68
2023-07-04T18:18:42.765Z,31.09
2023-07-04T18:21:18.516Z,30.84
2023-07-04T18:23:47.509Z,31.03
2023-07-04T18:26:15.817Z,31.74
2023-07-04T18:28:44.397Z,30.92
2023-07-04T18:31:13.926Z,30.08
2023-07-04T18:33:48.117Z,29.87
2023-07-04T18:36:17.651Z,30.06
2023-07-04T18:38:45.602Z,30.67
2023-07-04T18:41:14.424Z,30.55
2023-07-04T18:43:42.794Z,31.16
2023-07-04T18:46:10.818Z,30.60
2023-07-04T18:48:38.956Z,31.51
2023-07-04T18:51:12.996Z,31.21
2023-07-04T18:53:41.364Z,31.85
2023-07-04T18:56:09.830Z,31.88
2023-07-04T18:58:38.735Z,32.16
2023-07-04T19:01:14.362Z,32.87
2023-07-04T19:03:44.113Z,33.33
2023-07-04T19:06:13.979Z,33.36
2023-07-04T19:08:43.448Z,34.13
2023-07-04T19:11:11.560Z,34.38
2023-07-04T19:13:40.445Z,34.75
2023-07-04T19:16:09.167Z,34.88
2023-07-04T19:18:40.936Z,34.70
2023-07-04T19:21:08.940Z,34.47
2023-07-04T19:23:38.180Z,34.49
2023-07-04T19:26:12.214Z,34.96
2023-07-04T19:28:43.744Z,35.05
2023-07-04T19:31:16.909Z,35.49
2023-07-04T19:33:46.463Z,36.05
2023-07-04T19:36:18.130Z,37.69
2023-07-04T19:38:50.444Z,37.70
2023-07-04T19:41:19.073Z,37.21
2023-07-04T19:43:46.900Z,37.10
2023-07-04T19:46:18.594Z,36.98
2023-07-04T19:48:46.468Z,37.52
2023-07-04T19:51:15.667Z,38.26
2023-07-04T19:53:44.345Z,39.28
2023-07-04T19:56:17.774Z,42.13
2023-07-04T19:58:45.631Z,43.69
2023-07-04T20:01:16.132Z,44.98
2023-07-04T20:03:44.397Z,46.89
2023-07-04T20:06:14.730Z,46.03
2023-07-04T20:08:43.394Z,46.06
2023-07-04T20:11:11.704Z,47.55
2023-07-04T20:13:41.638Z,47.58
2023-07-04T20:16:11.049Z,49.04
2023-07-04T20:18:39.627Z,48.69
2023-07-04T20:21:07.726Z,51.28
2023-07-04T20:23:37.191Z,53.50
2023-07-04T20:26:05.678Z,56.16
2023-07-04T20:28:36.922Z,57.06
2023-07-04T20:31:06.678Z,60.31
2023-07-04T20:33:35.835Z,61.40
2023-07-04T20:36:04.222Z,62.55
2023-07-04T20:38:32.197Z,64.79
2023-07-04T20:41:03.534Z,66.88
2023-07-04T20:43:32.570Z,67.85
2023-07-04T20:46:00.760Z,69.17
2023-07-04T20:48:31.167Z,69.24
2023-07-04T20:51:04.829Z,70.54
2023-07-04T20:53:33.357Z,72.59
2023-07-04T20:56:03.537Z,73.72
2023-07-04T20:58:32.342Z,76.23
2023-07-04T21:01:00.518Z,78.18
2023-07-04T21:03:30.849Z,78.67
2023-07-04T21:06:03.446Z,78.96
2023-07-04T21:08:31.696Z,81.66
2023-07-04T21:11:07.310Z,81.30
2023-07-04T21:13:40.028Z,88.11
2023-07-04T21:16:11.018Z,98.47
2023-07-04T21:18:42.903Z,100.00
2023-07-04T21:21:11.844Z,100.00
2023-07-04T21:23:39.886Z,100.00
2023-07-04T21:26:08.793Z,96.05
2023-07-04T21:28:40.607Z,91.95
2023-07-04T21:31:09.353Z,90.62
2023-07-04T21:33:39.992Z,89.36
2023-07-04T21:36:12.626Z,90.57
2023-07-04T21:38:41.225Z,93.97
2023-07-04T21:41:11.449Z,93.65
2023-07-04T21:43:39.317Z,93.58
2023-07-04T21:46:09.002Z,94.37
2023-07-04T21:48:37.974Z,94.59
2023-07-04T21:51:07.725Z,95.33
2023-07-04T21:53:37.031Z,93.85
2023-07-04T21:56:06.682Z,94.36
2023-07-04T21:58:37.014Z,94.29
2023-07-04T22:01:07.850Z,96.40
2023-07-04T22:03:37.118Z,97.57
2023-07-04T22:06:06.339Z,99.42
2023-07-04T22:08:35.656Z,100.00
2023-07-04T22:11:05.904Z,100.00
2023-07-04T22:13:35.502Z,100.00
2023-07-04T22:16:08.653Z,100.00
2023-07-04T22:18:38.705Z,100.00
2023-07-04T22:21:08.854Z,100.00
2023-07-04T22:23:38.022Z,100.00
2023-07-04T22:26:08.018Z,100.00
2023-07-04T22:28:39.466Z,100.00
2023-07-04T22:31:08.718Z,100.00
2023-07-04T22:33:39.844Z,100.00
2023-07-04T22:36:08.780Z,100.00
2023-07-04T22:38:36.911Z,100.00
2023-07-04T22:41:07.551Z,100.00
2023-07-04T22:43:35.768Z,100.00
2023-07-04T22:46:04.986Z,100.00
2023-07-04T22:48:33.235Z,100.00
2023-07-04T22:51:03.537Z,100.00
2023-07-04T22:53:31.739Z,100.00
2023-07-04T22:56:05.816Z,100.00
2023-07-04T22:58:36.282Z,100.00
2023-07-04T23:01:14.324Z,100.00
2023-07-04T23:03:43.590Z,100.00
2023-07-04T23:06:12.952Z,100.00
2023-07-04T23:08:41.142Z,100.00
2023-07-04T23:11:09.458Z,100.00
2023-07-04T23:13:39.203Z,100.00
2023-07-04T23:16:10.230Z,100.00
2023-07-04T23:18:38.781Z,100.00
2023-07-04T23:21:06.741Z,100.00
2023-07-04T23:23:34.952Z,100.00
2023-07-04T23:26:08.925Z,100.00
2023-07-04T23:28:38.308Z,100.00
2023-07-04T23:31:07.969Z,100.00
2023-07-04T23:33:36.735Z,100.00
2023-07-04T23:36:05.932Z,100.00
2023-07-04T23:38:34.101Z,100.00
2023-07-04T23:41:02.053Z,100.00
2023-07-04T23:43:30.531Z,100.00
2023-07-04T23:46:01.336Z,100.00
2023-07-04T23:48:30.718Z,100.00
2023-07-04T23:50:59.348Z,100.00
2023-07-04T23:53:27.184Z,100.00
2023-07-04T23:55:55.783Z,100.00
2023-07-04T23:58:23.996Z,100.00
